sensor_id;sensor_type;location;lat;lon;timestamp;P1;durP1;ratioP1;P2;durP2;ratioP2
18383;SDS011;9318;48.644;9.456;2023-04-03T00:01:10;7.23;;;3.70;;
18383;SDS011;9318;48.644;9.456;2023-04-03T00:03:37;6.73;;;3.90;;
18383;SDS011;9318;48.644;9.456;2023-04-03T00:06:04;5.80;;;3.90;;
18383;SDS011;9318;48.644;9.456;2023-04-03T00:08:33;5.83;;;3.80;;
18383;SDS011;9318;48.644;9.456;2023-04-03T00:11:00;7.17;;;4.00;;
18383;SDS011;9318;48.644;9.456;2023-04-03T00:13:27;6.57;;;4.10;;
18383;SDS011;9318;48.644;9.456;2023-04-03T00:15:54;6.87;;;4.00;;
18383;SDS011;9318;48.644;9.456;2023-04-03T00:18:21;6.13;;;4.30;;
18383;SDS011;9318;48.644;9.456;2023-04-03T00:20:48;6.00;;;4.10;;
18383;SDS011;9318;48.644;9.456;2023-04-03T00:23:15;8.43;;;4.13;;
18383;SDS011;9318;48.644;9.456;2023-04-03T00:25:43;6.67;;;3.80;;
18383;SDS011;9318;48.644;9.456;2023-04-03T00:28:10;6.70;;;4.37;;
18383;SDS011;9318;48.644;9.456;2023-04-03T00:30:37;6.33;;;3.90;;
18383;SDS011;9318;48.644;9.456;2023-04-03T00:33:04;6.00;;;4.00;;
18383;SDS011;9318;48.644;9.456;2023-04-03T00:35:31;5.60;;;3.97;;
18383;SDS011;9318;48.644;9.456;2023-04-03T00:37:58;6.40;;;3.87;;
18383;SDS011;9318;48.644;9.456;2023-04-03T00:40:25;7.23;;;4.20;;
18383;SDS011;9318;48.644;9.456;2023-04-03T00:42:56;10.57;;;4.10;;
18383;SDS011;9318;48.644;9.456;2023-04-03T00:45:27;8.70;;;4.27;;
18383;SDS011;9318;48.644;9.456;2023-04-03T00:47:59;6.47;;;3.93;;
18383;SDS011;9318;48.644;9.456;2023-04-03T00:50:30;6.70;;;4.00;;
18383;SDS011;9318;48.644;9.456;2023-04-03T00:52:59;6.10;;;4.23;;
18383;SDS011;9318;48.644;9.456;2023-04-03T00:55:27;6.93;;;4.07;;
18383;SDS011;9318;48.644;9.456;2023-04-03T00:57:56;6.03;;;4.00;;
18383;SDS011;9318;48.644;9.456;2023-04-03T01:00:23;6.47;;;4.33;;
18383;SDS011;9318;48.644;9.456;2023-04-03T01:02:51;6.97;;;4.10;;
18383;SDS011;9318;48.644;9.456;2023-04-03T01:05:19;6.00;;;4.00;;
18383;SDS011;9318;48.644;9.456;2023-04-03T01:07:47;7.87;;;4.20;;
18383;SDS011;9318;48.644;9.456;2023-04-03T01:10:16;7.87;;;4.30;;
18383;SDS011;9318;48.644;9.456;2023-04-03T01:12:45;5.90;;;4.03;;
18383;SDS011;9318;48.644;9.456;2023-04-03T01:15:16;5.03;;;3.90;;
18383;SDS011;9318;48.644;9.456;2023-04-03T01:17:45;5.67;;;3.90;;
18383;SDS011;9318;48.644;9.456;2023-04-03T01:23:14;7.57;;;4.37;;
18383;SDS011;9318;48.644;9.456;2023-04-03T01:25:49;5.50;;;4.10;;
18383;SDS011;9318;48.644;9.456;2023-04-03T01:28:19;5.00;;;3.50;;
18383;SDS011;9318;48.644;9.456;2023-04-03T01:30:50;9.50;;;4.03;;
18383;SDS011;9318;48.644;9.456;2023-04-03T01:33:24;5.33;;;4.00;;
18383;SDS011;9318;48.644;9.456;2023-04-03T01:35:50;6.23;;;4.10;;
18383;SDS011;9318;48.644;9.456;2023-04-03T01:38:17;7.83;;;3.90;;
18383;SDS011;9318;48.644;9.456;2023-04-03T01:40:44;5.07;;;4.00;;
18383;SDS011;9318;48.644;9.456;2023-04-03T01:43:11;8.63;;;4.23;;
18383;SDS011;9318;48.644;9.456;2023-04-03T01:45:37;5.40;;;3.80;;
18383;SDS011;9318;48.644;9.456;2023-04-03T01:48:04;6.00;;;3.97;;
18383;SDS011;9318;48.644;9.456;2023-04-03T01:53:00;5.20;;;4.13;;
18383;SDS011;9318;48.644;9.456;2023-04-03T01:55:27;5.83;;;3.83;;
18383;SDS011;9318;48.644;9.456;2023-04-03T01:57:54;6.90;;;4.00;;
18383;SDS011;9318;48.644;9.456;2023-04-03T02:00:21;7.57;;;3.73;;
18383;SDS011;9318;48.644;9.456;2023-04-03T02:02:47;7.10;;;3.97;;
18383;SDS011;9318;48.644;9.456;2023-04-03T02:05:14;5.90;;;3.90;;
18383;SDS011;9318;48.644;9.456;2023-04-03T02:07:42;5.83;;;3.80;;
18383;SDS011;9318;48.644;9.456;2023-04-03T02:10:09;5.50;;;4.00;;
18383;SDS011;9318;48.644;9.456;2023-04-03T02:12:36;7.60;;;4.00;;
18383;SDS011;9318;48.644;9.456;2023-04-03T02:15:03;8.17;;;4.40;;
18383;SDS011;9318;48.644;9.456;2023-04-03T02:17:31;7.90;;;3.90;;
18383;SDS011;9318;48.644;9.456;2023-04-03T02:19:58;6.57;;;4.10;;
18383;SDS011;9318;48.644;9.456;2023-04-03T02:22:24;6.60;;;4.20;;
18383;SDS011;9318;48.644;9.456;2023-04-03T02:24:52;5.43;;;4.00;;
18383;SDS011;9318;48.644;9.456;2023-04-03T02:27:19;7.67;;;3.93;;
18383;SDS011;9318;48.644;9.456;2023-04-03T02:29:46;6.93;;;3.87;;
18383;SDS011;9318;48.644;9.456;2023-04-03T02:32:13;5.33;;;3.97;;
18383;SDS011;9318;48.644;9.456;2023-04-03T02:34:40;6.63;;;4.03;;
18383;SDS011;9318;48.644;9.456;2023-04-03T02:37:07;5.23;;;3.77;;
18383;SDS011;9318;48.644;9.456;2023-04-03T02:39:33;8.20;;;4.07;;
18383;SDS011;9318;48.644;9.456;2023-04-03T02:42:02;5.50;;;3.80;;
18383;SDS011;9318;48.644;9.456;2023-04-03T02:44:29;5.17;;;3.77;;
18383;SDS011;9318;48.644;9.456;2023-04-03T02:46:56;6.53;;;3.60;;
18383;SDS011;9318;48.644;9.456;2023-04-03T02:49:23;6.80;;;3.70;;
18383;SDS011;9318;48.644;9.456;2023-04-03T02:51:49;6.57;;;3.77;;
18383;SDS011;9318;48.644;9.456;2023-04-03T02:54:16;6.27;;;3.67;;
18383;SDS011;9318;48.644;9.456;2023-04-03T02:56:43;5.37;;;3.73;;
18383;SDS011;9318;48.644;9.456;2023-04-03T02:59:11;7.27;;;3.60;;
18383;SDS011;9318;48.644;9.456;2023-04-03T03:01:38;5.43;;;3.80;;
18383;SDS011;9318;48.644;9.456;2023-04-03T03:04:05;5.73;;;3.67;;
18383;SDS011;9318;48.644;9.456;2023-04-03T03:06:31;4.90;;;3.60;;
18383;SDS011;9318;48.644;9.456;2023-04-03T03:08:58;5.30;;;4.00;;
18383;SDS011;9318;48.644;9.456;2023-04-03T03:11:25;4.90;;;3.80;;
18383;SDS011;9318;48.644;9.456;2023-04-03T03:13:51;5.57;;;3.70;;
18383;SDS011;9318;48.644;9.456;2023-04-03T03:16:20;5.97;;;3.83;;
18383;SDS011;9318;48.644;9.456;2023-04-03T03:18:46;8.70;;;3.80;;
18383;SDS011;9318;48.644;9.456;2023-04-03T03:21:13;6.43;;;3.80;;
18383;SDS011;9318;48.644;9.456;2023-04-03T03:23:40;5.10;;;3.30;;
18383;SDS011;9318;48.644;9.456;2023-04-03T03:26:07;5.37;;;3.73;;
18383;SDS011;9318;48.644;9.456;2023-04-03T03:28:36;7.23;;;3.70;;
18383;SDS011;9318;48.644;9.456;2023-04-03T03:31:05;6.20;;;3.60;;
18383;SDS011;9318;48.644;9.456;2023-04-03T03:33:34;6.33;;;3.53;;
18383;SDS011;9318;48.644;9.456;2023-04-03T03:36:00;5.20;;;3.60;;
18383;SDS011;9318;48.644;9.456;2023-04-03T03:38:27;5.97;;;3.50;;
18383;SDS011;9318;48.644;9.456;2023-04-03T03:40:54;3.80;;;3.40;;
18383;SDS011;9318;48.644;9.456;2023-04-03T03:43:21;4.87;;;3.67;;
18383;SDS011;9318;48.644;9.456;2023-04-03T03:45:49;5.20;;;3.30;;
18383;SDS011;9318;48.644;9.456;2023-04-03T03:48:17;6.07;;;3.60;;
18383;SDS011;9318;48.644;9.456;2023-04-03T03:50:45;5.17;;;3.70;;
18383;SDS011;9318;48.644;9.456;2023-04-03T03:53:12;3.80;;;3.37;;
18383;SDS011;9318;48.644;9.456;2023-04-03T03:55:39;5.90;;;3.60;;
18383;SDS011;9318;48.644;9.456;2023-04-03T03:58:06;9.73;;;3.53;;
18383;SDS011;9318;48.644;9.456;2023-04-03T04:00:33;8.10;;;3.70;;
18383;SDS011;9318;48.644;9.456;2023-04-03T04:03:00;7.10;;;3.60;;
18383;SDS011;9318;48.644;9.456;2023-04-03T04:05:27;4.93;;;3.20;;
18383;SDS011;9318;48.644;9.456;2023-04-03T04:07:55;5.50;;;3.50;;
18383;SDS011;9318;48.644;9.456;2023-04-03T04:10:22;3.97;;;3.10;;
18383;SDS011;9318;48.644;9.456;2023-04-03T04:12:49;5.30;;;3.50;;
18383;SDS011;9318;48.644;9.456;2023-04-03T04:15:16;5.23;;;3.20;;
18383;SDS011;9318;48.644;9.456;2023-04-03T04:17:43;5.93;;;3.10;;
18383;SDS011;9318;48.644;9.456;2023-04-03T04:20:10;3.50;;;3.20;;
18383;SDS011;9318;48.644;9.456;2023-04-03T04:22:37;4.27;;;3.40;;
18383;SDS011;9318;48.644;9.456;2023-04-03T04:25:06;7.23;;;3.60;;
18383;SDS011;9318;48.644;9.456;2023-04-03T04:27:33;5.60;;;3.30;;
18383;SDS011;9318;48.644;9.456;2023-04-03T04:29:59;4.30;;;3.37;;
18383;SDS011;9318;48.644;9.456;2023-04-03T04:32:27;4.50;;;3.17;;
18383;SDS011;9318;48.644;9.456;2023-04-03T04:34:54;6.37;;;3.40;;
18383;SDS011;9318;48.644;9.456;2023-04-03T04:37:21;5.60;;;3.33;;
18383;SDS011;9318;48.644;9.456;2023-04-03T04:39:47;5.37;;;3.20;;
18383;SDS011;9318;48.644;9.456;2023-04-03T04:42:16;6.17;;;3.50;;
18383;SDS011;9318;48.644;9.456;2023-04-03T04:44:42;5.50;;;3.50;;
18383;SDS011;9318;48.644;9.456;2023-04-03T04:47:09;5.70;;;3.30;;
18383;SDS011;9318;48.644;9.456;2023-04-03T04:49:36;5.60;;;3.20;;
18383;SDS011;9318;48.644;9.456;2023-04-03T04:52:03;4.07;;;3.37;;
18383;SDS011;9318;48.644;9.456;2023-04-03T04:54:31;5.37;;;3.40;;
18383;SDS011;9318;48.644;9.456;2023-04-03T04:56:58;4.93;;;3.50;;
18383;SDS011;9318;48.644;9.456;2023-04-03T04:59:26;5.03;;;3.50;;
18383;SDS011;9318;48.644;9.456;2023-04-03T05:01:53;4.80;;;3.27;;
18383;SDS011;9318;48.644;9.456;2023-04-03T05:04:19;5.67;;;3.20;;
18383;SDS011;9318;48.644;9.456;2023-04-03T05:06:46;4.53;;;3.33;;
18383;SDS011;9318;48.644;9.456;2023-04-03T05:09:13;5.20;;;3.70;;
18383;SDS011;9318;48.644;9.456;2023-04-03T05:11:40;6.37;;;3.50;;
18383;SDS011;9318;48.644;9.456;2023-04-03T05:14:08;3.60;;;3.20;;
18383;SDS011;9318;48.644;9.456;2023-04-03T05:16:36;6.30;;;3.20;;
18383;SDS011;9318;48.644;9.456;2023-04-03T05:19:03;4.47;;;3.40;;
18383;SDS011;9318;48.644;9.456;2023-04-03T05:21:30;4.53;;;3.40;;
18383;SDS011;9318;48.644;9.456;2023-04-03T05:23:57;5.40;;;3.50;;
18383;SDS011;9318;48.644;9.456;2023-04-03T05:26:24;4.97;;;3.40;;
18383;SDS011;9318;48.644;9.456;2023-04-03T05:28:51;6.23;;;3.53;;
18383;SDS011;9318;48.644;9.456;2023-04-03T05:31:18;5.13;;;3.33;;
18383;SDS011;9318;48.644;9.456;2023-04-03T05:33:46;6.33;;;3.30;;
18383;SDS011;9318;48.644;9.456;2023-04-03T05:36:13;6.67;;;3.20;;
18383;SDS011;9318;48.644;9.456;2023-04-03T05:38:40;5.17;;;3.30;;
18383;SDS011;9318;48.644;9.456;2023-04-03T05:41:07;4.50;;;3.30;;
18383;SDS011;9318;48.644;9.456;2023-04-03T05:43:33;3.63;;;3.33;;
18383;SDS011;9318;48.644;9.456;2023-04-03T05:46:02;4.87;;;3.47;;
18383;SDS011;9318;48.644;9.456;2023-04-03T05:48:29;4.23;;;3.40;;
18383;SDS011;9318;48.644;9.456;2023-04-03T05:50:57;5.30;;;3.40;;
18383;SDS011;9318;48.644;9.456;2023-04-03T05:53:25;4.60;;;3.50;;
18383;SDS011;9318;48.644;9.456;2023-04-03T05:55:54;4.20;;;3.30;;
18383;SDS011;9318;48.644;9.456;2023-04-03T05:58:21;4.10;;;3.30;;
18383;SDS011;9318;48.644;9.456;2023-04-03T06:00:47;5.03;;;3.40;;
18383;SDS011;9318;48.644;9.456;2023-04-03T06:03:14;3.77;;;3.40;;
18383;SDS011;9318;48.644;9.456;2023-04-03T06:05:41;8.60;;;3.80;;
18383;SDS011;9318;48.644;9.456;2023-04-03T06:08:09;5.53;;;3.37;;
18383;SDS011;9318;48.644;9.456;2023-04-03T06:10:37;7.07;;;3.43;;
18383;SDS011;9318;48.644;9.456;2023-04-03T06:13:04;4.07;;;3.30;;
18383;SDS011;9318;48.644;9.456;2023-04-03T06:15:32;6.00;;;3.60;;
18383;SDS011;9318;48.644;9.456;2023-04-03T06:17:59;6.20;;;3.37;;
18383;SDS011;9318;48.644;9.456;2023-04-03T06:20:26;6.27;;;3.47;;
18383;SDS011;9318;48.644;9.456;2023-04-03T06:22:53;4.33;;;3.43;;
18383;SDS011;9318;48.644;9.456;2023-04-03T06:25:21;6.87;;;3.60;;
18383;SDS011;9318;48.644;9.456;2023-04-03T06:27:47;5.27;;;3.50;;
18383;SDS011;9318;48.644;9.456;2023-04-03T06:30:14;6.73;;;3.67;;
18383;SDS011;9318;48.644;9.456;2023-04-03T06:32:41;4.57;;;3.43;;
18383;SDS011;9318;48.644;9.456;2023-04-03T06:35:09;5.30;;;3.60;;
18383;SDS011;9318;48.644;9.456;2023-04-03T06:37:36;5.73;;;3.43;;
18383;SDS011;9318;48.644;9.456;2023-04-03T06:40:03;4.70;;;3.30;;
18383;SDS011;9318;48.644;9.456;2023-04-03T06:42:32;5.80;;;3.43;;
18383;SDS011;9318;48.644;9.456;2023-04-03T06:44:59;4.87;;;3.50;;
18383;SDS011;9318;48.644;9.456;2023-04-03T06:47:26;4.67;;;3.33;;
18383;SDS011;9318;48.644;9.456;2023-04-03T06:49:53;5.03;;;3.30;;
18383;SDS011;9318;48.644;9.456;2023-04-03T06:52:20;7.13;;;3.80;;
18383;SDS011;9318;48.644;9.456;2023-04-03T06:54:46;5.90;;;3.70;;
18383;SDS011;9318;48.644;9.456;2023-04-03T06:57:13;5.37;;;3.30;;
18383;SDS011;9318;48.644;9.456;2023-04-03T06:59:41;5.13;;;3.50;;
18383;SDS011;9318;48.644;9.456;2023-04-03T07:02:09;5.20;;;3.20;;
18383;SDS011;9318;48.644;9.456;2023-04-03T07:04:37;5.43;;;3.33;;
18383;SDS011;9318;48.644;9.456;2023-04-03T07:07:04;5.07;;;3.40;;
18383;SDS011;9318;48.644;9.456;2023-04-03T07:09:31;7.47;;;3.70;;
18383;SDS011;9318;48.644;9.456;2023-04-03T07:11:57;7.37;;;3.77;;
18383;SDS011;9318;48.644;9.456;2023-04-03T07:14:24;4.87;;;3.50;;
18383;SDS011;9318;48.644;9.456;2023-04-03T07:16:52;8.00;;;3.43;;
18383;SDS011;9318;48.644;9.456;2023-04-03T07:19:19;6.43;;;3.77;;
18383;SDS011;9318;48.644;9.456;2023-04-03T07:21:46;5.77;;;3.50;;
18383;SDS011;9318;48.644;9.456;2023-04-03T07:24:13;5.23;;;3.50;;
18383;SDS011;9318;48.644;9.456;2023-04-03T07:26:40;7.77;;;3.90;;
18383;SDS011;9318;48.644;9.456;2023-04-03T07:29:07;7.23;;;3.60;;
18383;SDS011;9318;48.644;9.456;2023-04-03T07:31:34;5.47;;;3.50;;
18383;SDS011;9318;48.644;9.456;2023-04-03T07:34:02;9.30;;;3.70;;
18383;SDS011;9318;48.644;9.456;2023-04-03T07:36:29;6.27;;;3.50;;
18383;SDS011;9318;48.644;9.456;2023-04-03T07:38:58;7.63;;;3.37;;
18383;SDS011;9318;48.644;9.456;2023-04-03T07:41:25;5.07;;;3.60;;
18383;SDS011;9318;48.644;9.456;2023-04-03T07:43:51;6.33;;;3.47;;
18383;SDS011;9318;48.644;9.456;2023-04-03T07:46:18;9.60;;;3.70;;
18383;SDS011;9318;48.644;9.456;2023-04-03T07:48:45;5.97;;;3.63;;
18383;SDS011;9318;48.644;9.456;2023-04-03T07:51:13;5.20;;;3.67;;
18383;SDS011;9318;48.644;9.456;2023-04-03T07:53:41;7.40;;;3.60;;
18383;SDS011;9318;48.644;9.456;2023-04-03T07:56:08;5.73;;;3.57;;
18383;SDS011;9318;48.644;9.456;2023-04-03T07:58:35;6.03;;;3.70;;
18383;SDS011;9318;48.644;9.456;2023-04-03T08:01:03;6.60;;;3.70;;
18383;SDS011;9318;48.644;9.456;2023-04-03T08:03:31;5.60;;;3.70;;
18383;SDS011;9318;48.644;9.456;2023-04-03T08:06:01;5.10;;;3.60;;
18383;SDS011;9318;48.644;9.456;2023-04-03T08:08:30;7.43;;;3.50;;
18383;SDS011;9318;48.644;9.456;2023-04-03T08:10:58;7.80;;;3.60;;
18383;SDS011;9318;48.644;9.456;2023-04-03T08:13:27;5.50;;;3.50;;
18383;SDS011;9318;48.644;9.456;2023-04-03T08:15:55;6.80;;;3.50;;
18383;SDS011;9318;48.644;9.456;2023-04-03T08:18:24;7.60;;;3.43;;
18383;SDS011;9318;48.644;9.456;2023-04-03T08:20:51;5.23;;;3.30;;
18383;SDS011;9318;48.644;9.456;2023-04-03T08:23:18;6.37;;;3.60;;
18383;SDS011;9318;48.644;9.456;2023-04-03T08:25:47;5.10;;;3.57;;
18383;SDS011;9318;48.644;9.456;2023-04-03T08:28:14;6.07;;;3.60;;
18383;SDS011;9318;48.644;9.456;2023-04-03T08:30:41;6.93;;;3.60;;
18383;SDS011;9318;48.644;9.456;2023-04-03T08:33:08;8.03;;;3.37;;
18383;SDS011;9318;48.644;9.456;2023-04-03T08:35:38;6.43;;;3.30;;
18383;SDS011;9318;48.644;9.456;2023-04-03T08:38:05;6.30;;;3.50;;
18383;SDS011;9318;48.644;9.456;2023-04-03T08:40:32;6.93;;;3.47;;
18383;SDS011;9318;48.644;9.456;2023-04-03T08:43:03;5.83;;;3.40;;
18383;SDS011;9318;48.644;9.456;2023-04-03T08:45:49;8.20;;;3.50;;
18383;SDS011;9318;48.644;9.456;2023-04-03T08:48:19;5.70;;;3.20;;
18383;SDS011;9318;48.644;9.456;2023-04-03T08:50:49;6.23;;;3.30;;
18383;SDS011;9318;48.644;9.456;2023-04-03T08:53:19;6.80;;;3.40;;
18383;SDS011;9318;48.644;9.456;2023-04-03T08:55:49;5.03;;;3.00;;
18383;SDS011;9318;48.644;9.456;2023-04-03T08:58:19;6.67;;;3.43;;
18383;SDS011;9318;48.644;9.456;2023-04-03T09:00:49;6.20;;;3.53;;
18383;SDS011;9318;48.644;9.456;2023-04-03T09:03:18;6.10;;;3.40;;
18383;SDS011;9318;48.644;9.456;2023-04-03T09:05:47;6.10;;;3.47;;
18383;SDS011;9318;48.644;9.456;2023-04-03T09:08:27;8.77;;;3.40;;
18383;SDS011;9318;48.644;9.456;2023-04-03T09:10:58;5.33;;;3.03;;
18383;SDS011;9318;48.644;9.456;2023-04-03T09:13:34;4.53;;;3.13;;
18383;SDS011;9318;48.644;9.456;2023-04-03T09:16:13;7.90;;;3.17;;
18383;SDS011;9318;48.644;9.456;2023-04-03T09:18:48;5.43;;;3.20;;
18383;SDS011;9318;48.644;9.456;2023-04-03T09:21:23;5.60;;;3.20;;
18383;SDS011;9318;48.644;9.456;2023-04-03T09:23:54;7.33;;;3.17;;
18383;SDS011;9318;48.644;9.456;2023-04-03T09:26:28;6.40;;;3.40;;
18383;SDS011;9318;48.644;9.456;2023-04-03T09:29:00;7.30;;;3.20;;
18383;SDS011;9318;48.644;9.456;2023-04-03T09:31:35;5.70;;;3.20;;
18383;SDS011;9318;48.644;9.456;2023-04-03T09:34:05;3.83;;;3.10;;
18383;SDS011;9318;48.644;9.456;2023-04-03T09:36:41;5.27;;;3.10;;
18383;SDS011;9318;48.644;9.456;2023-04-03T09:39:11;4.90;;;3.20;;
18383;SDS011;9318;48.644;9.456;2023-04-03T09:41:40;5.47;;;3.10;;
18383;SDS011;9318;48.644;9.456;2023-04-03T09:44:25;8.03;;;3.20;;
18383;SDS011;9318;48.644;9.456;2023-04-03T09:46:55;4.50;;;3.10;;
18383;SDS011;9318;48.644;9.456;2023-04-03T09:49:22;5.23;;;3.10;;
18383;SDS011;9318;48.644;9.456;2023-04-03T09:51:48;6.87;;;3.30;;
18383;SDS011;9318;48.644;9.456;2023-04-03T09:54:29;5.23;;;3.30;;
18383;SDS011;9318;48.644;9.456;2023-04-03T09:56:58;5.60;;;3.10;;
18383;SDS011;9318;48.644;9.456;2023-04-03T09:59:32;4.87;;;3.13;;
18383;SDS011;9318;48.644;9.456;2023-04-03T10:02:00;6.33;;;3.40;;
18383;SDS011;9318;48.644;9.456;2023-04-03T10:04:37;5.33;;;3.20;;
18383;SDS011;9318;48.644;9.456;2023-04-03T10:07:26;5.43;;;3.40;;
18383;SDS011;9318;48.644;9.456;2023-04-03T10:09:55;5.70;;;3.20;;
18383;SDS011;9318;48.644;9.456;2023-04-03T10:12:23;8.43;;;3.13;;
18383;SDS011;9318;48.644;9.456;2023-04-03T10:14:55;4.63;;;3.20;;
18383;SDS011;9318;48.644;9.456;2023-04-03T10:17:25;7.40;;;3.70;;
18383;SDS011;9318;48.644;9.456;2023-04-03T10:20:06;5.50;;;3.20;;
18383;SDS011;9318;48.644;9.456;2023-04-03T10:22:44;6.40;;;3.20;;
18383;SDS011;9318;48.644;9.456;2023-04-03T10:25:17;6.60;;;3.30;;
18383;SDS011;9318;48.644;9.456;2023-04-03T10:27:55;4.60;;;3.10;;
18383;SDS011;9318;48.644;9.456;2023-04-03T10:30:30;7.97;;;3.27;;
18383;SDS011;9318;48.644;9.456;2023-04-03T10:33:19;5.70;;;2.87;;
18383;SDS011;9318;48.644;9.456;2023-04-03T10:35:56;6.80;;;3.17;;
18383;SDS011;9318;48.644;9.456;2023-04-03T10:38:39;9.37;;;3.00;;
18383;SDS011;9318;48.644;9.456;2023-04-03T10:41:16;4.73;;;3.00;;
18383;SDS011;9318;48.644;9.456;2023-04-03T10:43:50;9.13;;;3.00;;
18383;SDS011;9318;48.644;9.456;2023-04-03T10:46:28;4.43;;;2.80;;
18383;SDS011;9318;48.644;9.456;2023-04-03T10:49:05;4.63;;;2.67;;
18383;SDS011;9318;48.644;9.456;2023-04-03T10:51:41;4.87;;;2.60;;
18383;SDS011;9318;48.644;9.456;2023-04-03T10:54:11;4.63;;;2.60;;
18383;SDS011;9318;48.644;9.456;2023-04-03T10:56:42;2.73;;;2.40;;
18383;SDS011;9318;48.644;9.456;2023-04-03T10:59:16;4.07;;;2.53;;
18383;SDS011;9318;48.644;9.456;2023-04-03T11:01:48;3.87;;;2.50;;
18383;SDS011;9318;48.644;9.456;2023-04-03T11:04:18;3.40;;;2.40;;
18383;SDS011;9318;48.644;9.456;2023-04-03T11:06:47;2.53;;;2.33;;
18383;SDS011;9318;48.644;9.456;2023-04-03T11:09:19;5.20;;;2.60;;
18383;SDS011;9318;48.644;9.456;2023-04-03T11:11:50;4.10;;;2.50;;
18383;SDS011;9318;48.644;9.456;2023-04-03T11:14:23;5.80;;;2.50;;
18383;SDS011;9318;48.644;9.456;2023-04-03T11:16:59;3.40;;;2.50;;
18383;SDS011;9318;48.644;9.456;2023-04-03T11:19:34;7.33;;;3.00;;
18383;SDS011;9318;48.644;9.456;2023-04-03T11:22:04;5.63;;;2.50;;
18383;SDS011;9318;48.644;9.456;2023-04-03T11:24:37;2.80;;;2.43;;
18383;SDS011;9318;48.644;9.456;2023-04-03T11:27:08;4.67;;;2.67;;
18383;SDS011;9318;48.644;9.456;2023-04-03T11:29:41;5.20;;;2.60;;
18383;SDS011;9318;48.644;9.456;2023-04-03T11:32:20;4.43;;;2.50;;
18383;SDS011;9318;48.644;9.456;2023-04-03T11:34:59;5.07;;;2.70;;
18383;SDS011;9318;48.644;9.456;2023-04-03T11:37:31;4.87;;;2.43;;
18383;SDS011;9318;48.644;9.456;2023-04-03T11:40:02;5.70;;;2.50;;
18383;SDS011;9318;48.644;9.456;2023-04-03T11:42:34;4.47;;;2.50;;
18383;SDS011;9318;48.644;9.456;2023-04-03T11:54:35;4.60;;;2.97;;
18383;SDS011;9318;48.644;9.456;2023-04-03T11:57:22;4.67;;;2.63;;
18383;SDS011;9318;48.644;9.456;2023-04-03T12:09:22;6.63;;;2.90;;
18383;SDS011;9318;48.644;9.456;2023-04-03T12:11:51;5.43;;;2.90;;
18383;SDS011;9318;48.644;9.456;2023-04-03T12:14:18;3.90;;;2.50;;
18383;SDS011;9318;48.644;9.456;2023-04-03T12:16:49;3.97;;;2.70;;
18383;SDS011;9318;48.644;9.456;2023-04-03T12:19:33;3.93;;;2.60;;
18383;SDS011;9318;48.644;9.456;2023-04-03T12:22:10;4.83;;;3.00;;
18383;SDS011;9318;48.644;9.456;2023-04-03T12:24:51;7.50;;;2.70;;
18383;SDS011;9318;48.644;9.456;2023-04-03T12:27:28;4.80;;;2.70;;
18383;SDS011;9318;48.644;9.456;2023-04-03T12:30:12;4.83;;;2.67;;
18383;SDS011;9318;48.644;9.456;2023-04-03T12:32:51;3.87;;;2.60;;
18383;SDS011;9318;48.644;9.456;2023-04-03T12:35:40;3.77;;;2.63;;
18383;SDS011;9318;48.644;9.456;2023-04-03T12:38:22;4.70;;;2.90;;
18383;SDS011;9318;48.644;9.456;2023-04-03T12:41:12;5.10;;;2.80;;
18383;SDS011;9318;48.644;9.456;2023-04-03T12:43:49;4.23;;;2.70;;
18383;SDS011;9318;48.644;9.456;2023-04-03T12:46:24;4.17;;;2.60;;
18383;SDS011;9318;48.644;9.456;2023-04-03T12:48:55;5.53;;;2.90;;
18383;SDS011;9318;48.644;9.456;2023-04-03T12:51:26;3.00;;;2.50;;
18383;SDS011;9318;48.644;9.456;2023-04-03T12:54:00;3.87;;;2.73;;
18383;SDS011;9318;48.644;9.456;2023-04-03T12:56:29;3.97;;;2.80;;
18383;SDS011;9318;48.644;9.456;2023-04-03T12:59:12;4.90;;;2.80;;
18383;SDS011;9318;48.644;9.456;2023-04-03T13:01:41;6.00;;;2.73;;
18383;SDS011;9318;48.644;9.456;2023-04-03T13:04:09;4.50;;;2.70;;
18383;SDS011;9318;48.644;9.456;2023-04-03T13:06:39;4.43;;;2.60;;
18383;SDS011;9318;48.644;9.456;2023-04-03T13:09:17;5.93;;;2.90;;
18383;SDS011;9318;48.644;9.456;2023-04-03T13:11:47;5.60;;;2.83;;
18383;SDS011;9318;48.644;9.456;2023-04-03T13:14:17;4.57;;;2.70;;
18383;SDS011;9318;48.644;9.456;2023-04-03T13:16:52;3.97;;;2.50;;
18383;SDS011;9318;48.644;9.456;2023-04-03T13:19:21;4.43;;;2.50;;
18383;SDS011;9318;48.644;9.456;2023-04-03T13:21:49;4.83;;;2.80;;
18383;SDS011;9318;48.644;9.456;2023-04-03T13:24:22;4.30;;;2.77;;
18383;SDS011;9318;48.644;9.456;2023-04-03T13:26:49;3.80;;;2.63;;
18383;SDS011;9318;48.644;9.456;2023-04-03T13:29:20;4.30;;;2.87;;
18383;SDS011;9318;48.644;9.456;2023-04-03T13:31:52;4.20;;;2.90;;
18383;SDS011;9318;48.644;9.456;2023-04-03T13:34:21;3.87;;;3.00;;
18383;SDS011;9318;48.644;9.456;2023-04-03T13:36:55;4.63;;;2.93;;
18383;SDS011;9318;48.644;9.456;2023-04-03T13:39:25;6.13;;;3.00;;
18383;SDS011;9318;48.644;9.456;2023-04-03T13:41:55;5.13;;;2.90;;
18383;SDS011;9318;48.644;9.456;2023-04-03T13:44:28;3.53;;;2.93;;
18383;SDS011;9318;48.644;9.456;2023-04-03T13:46:57;6.00;;;2.80;;
18383;SDS011;9318;48.644;9.456;2023-04-03T13:49:31;5.67;;;2.90;;
18383;SDS011;9318;48.644;9.456;2023-04-03T13:52:00;5.07;;;2.97;;
18383;SDS011;9318;48.644;9.456;2023-04-03T13:54:31;3.70;;;2.80;;
18383;SDS011;9318;48.644;9.456;2023-04-03T13:56:59;5.33;;;3.10;;
18383;SDS011;9318;48.644;9.456;2023-04-03T13:59:27;5.50;;;3.00;;
18383;SDS011;9318;48.644;9.456;2023-04-03T14:02:09;5.50;;;2.97;;
18383;SDS011;9318;48.644;9.456;2023-04-03T14:04:45;3.90;;;2.93;;
18383;SDS011;9318;48.644;9.456;2023-04-03T14:07:15;5.87;;;3.07;;
18383;SDS011;9318;48.644;9.456;2023-04-03T14:09:46;5.50;;;2.70;;
18383;SDS011;9318;48.644;9.456;2023-04-03T14:12:14;4.77;;;3.03;;
18383;SDS011;9318;48.644;9.456;2023-04-03T14:14:43;5.73;;;2.90;;
18383;SDS011;9318;48.644;9.456;2023-04-03T14:17:13;4.50;;;2.83;;
18383;SDS011;9318;48.644;9.456;2023-04-03T14:19:42;6.37;;;3.20;;
18383;SDS011;9318;48.644;9.456;2023-04-03T14:22:12;5.10;;;2.97;;
18383;SDS011;9318;48.644;9.456;2023-04-03T14:24:42;4.70;;;2.80;;
18383;SDS011;9318;48.644;9.456;2023-04-03T14:27:13;4.83;;;3.00;;
18383;SDS011;9318;48.644;9.456;2023-04-03T14:29:42;4.43;;;2.90;;
18383;SDS011;9318;48.644;9.456;2023-04-03T14:32:10;5.80;;;2.87;;
18383;SDS011;9318;48.644;9.456;2023-04-03T14:34:37;3.10;;;2.63;;
18383;SDS011;9318;48.644;9.456;2023-04-03T14:37:04;5.27;;;2.80;;
18383;SDS011;9318;48.644;9.456;2023-04-03T14:39:32;5.43;;;3.03;;
18383;SDS011;9318;48.644;9.456;2023-04-03T14:41:59;5.60;;;2.80;;
18383;SDS011;9318;48.644;9.456;2023-04-03T14:44:27;5.43;;;2.90;;
18383;SDS011;9318;48.644;9.456;2023-04-03T14:46:54;7.60;;;3.37;;
18383;SDS011;9318;48.644;9.456;2023-04-03T14:49:22;6.73;;;2.93;;
18383;SDS011;9318;48.644;9.456;2023-04-03T14:51:53;5.13;;;2.90;;
18383;SDS011;9318;48.644;9.456;2023-04-03T14:54:21;3.50;;;2.90;;
18383;SDS011;9318;48.644;9.456;2023-04-03T14:56:50;5.10;;;3.00;;
18383;SDS011;9318;48.644;9.456;2023-04-03T14:59:18;4.27;;;2.90;;
18383;SDS011;9318;48.644;9.456;2023-04-03T15:01:47;6.67;;;3.00;;
18383;SDS011;9318;48.644;9.456;2023-04-03T15:04:15;3.73;;;2.57;;
18383;SDS011;9318;48.644;9.456;2023-04-03T15:06:43;8.90;;;3.00;;
18383;SDS011;9318;48.644;9.456;2023-04-03T15:09:12;4.70;;;3.07;;
18383;SDS011;9318;48.644;9.456;2023-04-03T15:11:45;6.30;;;2.90;;
18383;SDS011;9318;48.644;9.456;2023-04-03T15:14:12;7.27;;;3.20;;
18383;SDS011;9318;48.644;9.456;2023-04-03T15:16:39;7.13;;;3.20;;
18383;SDS011;9318;48.644;9.456;2023-04-03T15:19:07;6.67;;;3.00;;
18383;SDS011;9318;48.644;9.456;2023-04-03T15:21:34;5.90;;;2.90;;
18383;SDS011;9318;48.644;9.456;2023-04-03T15:24:00;4.33;;;3.00;;
18383;SDS011;9318;48.644;9.456;2023-04-03T15:26:27;5.30;;;3.50;;
18383;SDS011;9318;48.644;9.456;2023-04-03T15:28:55;6.23;;;3.40;;
18383;SDS011;9318;48.644;9.456;2023-04-03T15:31:21;5.87;;;2.83;;
18383;SDS011;9318;48.644;9.456;2023-04-03T15:33:48;4.90;;;2.87;;
18383;SDS011;9318;48.644;9.456;2023-04-03T15:36:16;6.17;;;2.90;;
18383;SDS011;9318;48.644;9.456;2023-04-03T15:38:43;4.70;;;2.50;;